sensor_id;sensor_type;location;lat;lon;timestamp;P1;durP1;ratioP1;P2;durP2;ratioP2
34505;SDS011;20748;42.632;23.198;2023-09-30T00:02:17;8.07;;;3.72;;
34505;SDS011;20748;42.632;23.198;2023-09-30T00:04:51;6.05;;;3.47;;
34505;SDS011;20748;42.632;23.198;2023-09-30T00:07:26;7.45;;;3.00;;
34505;SDS011;20748;42.632;23.198;2023-09-30T00:10:00;5.75;;;3.03;;
34505;SDS011;20748;42.632;23.198;2023-09-30T00:12:35;5.78;;;3.28;;
34505;SDS011;20748;42.632;23.198;2023-09-30T00:15:09;5.80;;;3.80;;
34505;SDS011;20748;42.632;23.198;2023-09-30T00:17:43;6.82;;;4.25;;
34505;SDS011;20748;42.632;23.198;2023-09-30T00:20:17;5.07;;;3.08;;
34505;SDS011;20748;42.632;23.198;2023-09-30T00:22:52;9.80;;;3.80;;
34505;SDS011;20748;42.632;23.198;2023-09-30T00:25:26;8.20;;;3.13;;
34505;SDS011;20748;42.632;23.198;2023-09-30T00:28:00;5.85;;;3.22;;
34505;SDS011;20748;42.632;23.198;2023-09-30T00:30:34;10.23;;;4.20;;
34505;SDS011;20748;42.632;23.198;2023-09-30T00:33:08;6.95;;;3.00;;
34505;SDS011;20748;42.632;23.198;2023-09-30T00:35:42;8.35;;;3.42;;
34505;SDS011;20748;42.632;23.198;2023-09-30T00:38:17;6.70;;;3.40;;
34505;SDS011;20748;42.632;23.198;2023-09-30T00:40:51;8.93;;;4.03;;
34505;SDS011;20748;42.632;23.198;2023-09-30T00:43:25;7.90;;;3.58;;
34505;SDS011;20748;42.632;23.198;2023-09-30T00:46:01;5.60;;;3.22;;
34505;SDS011;20748;42.632;23.198;2023-09-30T00:48:38;9.10;;;4.05;;
34505;SDS011;20748;42.632;23.198;2023-09-30T00:51:13;7.50;;;3.97;;
34505;SDS011;20748;42.632;23.198;2023-09-30T00:53:48;9.80;;;4.40;;
34505;SDS011;20748;42.632;23.198;2023-09-30T00:56:25;8.35;;;3.60;;
34505;SDS011;20748;42.632;23.198;2023-09-30T00:59:00;6.47;;;3.40;;
34505;SDS011;20748;42.632;23.198;2023-09-30T01:01:34;6.78;;;3.80;;
34505;SDS011;20748;42.632;23.198;2023-09-30T01:04:08;11.27;;;3.72;;
34505;SDS011;20748;42.632;23.198;2023-09-30T01:06:43;6.57;;;3.38;;
34505;SDS011;20748;42.632;23.198;2023-09-30T01:09:18;9.23;;;3.22;;
34505;SDS011;20748;42.632;23.198;2023-09-30T01:11:52;7.10;;;3.83;;
34505;SDS011;20748;42.632;23.198;2023-09-30T01:14:26;9.30;;;3.38;;
34505;SDS011;20748;42.632;23.198;2023-09-30T01:17:01;7.55;;;3.42;;
34505;SDS011;20748;42.632;23.198;2023-09-30T01:19:36;13.15;;;3.60;;
34505;SDS011;20748;42.632;23.198;2023-09-30T01:22:11;9.20;;;3.50;;
34505;SDS011;20748;42.632;23.198;2023-09-30T01:24:45;8.70;;;3.78;;
34505;SDS011;20748;42.632;23.198;2023-09-30T01:27:19;11.63;;;3.55;;
34505;SDS011;20748;42.632;23.198;2023-09-30T01:29:53;7.45;;;3.63;;
34505;SDS011;20748;42.632;23.198;2023-09-30T01:32:27;6.88;;;3.50;;
34505;SDS011;20748;42.632;23.198;2023-09-30T01:35:01;9.23;;;3.28;;
34505;SDS011;20748;42.632;23.198;2023-09-30T01:37:37;12.50;;;3.90;;
34505;SDS011;20748;42.632;23.198;2023-09-30T01:40:11;7.88;;;3.70;;
34505;SDS011;20748;42.632;23.198;2023-09-30T01:42:45;6.25;;;2.92;;
34505;SDS011;20748;42.632;23.198;2023-09-30T01:45:18;8.32;;;3.10;;
34505;SDS011;20748;42.632;23.198;2023-09-30T01:47:52;7.15;;;4.00;;
34505;SDS011;20748;42.632;23.198;2023-09-30T01:50:26;9.98;;;3.97;;
34505;SDS011;20748;42.632;23.198;2023-09-30T01:53:02;9.43;;;3.70;;
34505;SDS011;20748;42.632;23.198;2023-09-30T01:55:36;7.10;;;4.15;;
34505;SDS011;20748;42.632;23.198;2023-09-30T01:58:10;9.10;;;4.05;;
34505;SDS011;20748;42.632;23.198;2023-09-30T02:00:44;5.97;;;3.38;;
34505;SDS011;20748;42.632;23.198;2023-09-30T02:03:18;5.35;;;3.40;;
34505;SDS011;20748;42.632;23.198;2023-09-30T02:05:52;6.80;;;3.67;;
34505;SDS011;20748;42.632;23.198;2023-09-30T02:08:28;6.97;;;3.35;;
34505;SDS011;20748;42.632;23.198;2023-09-30T02:11:01;6.28;;;3.95;;
34505;SDS011;20748;42.632;23.198;2023-09-30T02:13:37;9.73;;;3.90;;
34505;SDS011;20748;42.632;23.198;2023-09-30T02:16:11;6.72;;;3.70;;
34505;SDS011;20748;42.632;23.198;2023-09-30T02:18:47;13.57;;;4.05;;
34505;SDS011;20748;42.632;23.198;2023-09-30T02:21:22;9.30;;;3.45;;
34505;SDS011;20748;42.632;23.198;2023-09-30T02:23:58;7.90;;;3.80;;
34505;SDS011;20748;42.632;23.198;2023-09-30T02:26:31;7.75;;;3.63;;
34505;SDS011;20748;42.632;23.198;2023-09-30T02:29:05;5.97;;;3.53;;
34505;SDS011;20748;42.632;23.198;2023-09-30T02:31:40;6.75;;;3.90;;
34505;SDS011;20748;42.632;23.198;2023-09-30T02:34:16;5.95;;;3.95;;
34505;SDS011;20748;42.632;23.198;2023-09-30T02:36:50;6.78;;;3.72;;
34505;SDS011;20748;42.632;23.198;2023-09-30T02:39:29;6.50;;;4.15;;
34505;SDS011;20748;42.632;23.198;2023-09-30T02:42:03;8.23;;;4.15;;
34505;SDS011;20748;42.632;23.198;2023-09-30T02:44:37;6.45;;;3.90;;
34505;SDS011;20748;42.632;23.198;2023-09-30T02:47:11;7.13;;;4.43;;
34505;SDS011;20748;42.632;23.198;2023-09-30T02:49:46;9.95;;;4.57;;
34505;SDS011;20748;42.632;23.198;2023-09-30T02:52:20;13.27;;;4.57;;
34505;SDS011;20748;42.632;23.198;2023-09-30T02:54:55;11.30;;;4.60;;
34505;SDS011;20748;42.632;23.198;2023-09-30T02:57:29;10.70;;;4.32;;
34505;SDS011;20748;42.632;23.198;2023-09-30T03:00:04;10.32;;;3.55;;
34505;SDS011;20748;42.632;23.198;2023-09-30T03:02:53;8.90;;;4.28;;
34505;SDS011;20748;42.632;23.198;2023-09-30T03:05:28;7.43;;;4.07;;
34505;SDS011;20748;42.632;23.198;2023-09-30T03:08:05;8.00;;;4.10;;
34505;SDS011;20748;42.632;23.198;2023-09-30T03:10:40;7.60;;;4.03;;
34505;SDS011;20748;42.632;23.198;2023-09-30T03:13:14;8.13;;;4.25;;
34505;SDS011;20748;42.632;23.198;2023-09-30T03:15:48;6.57;;;4.22;;
34505;SDS011;20748;42.632;23.198;2023-09-30T03:18:24;5.85;;;3.78;;
34505;SDS011;20748;42.632;23.198;2023-09-30T03:20:59;8.20;;;3.95;;
34505;SDS011;20748;42.632;23.198;2023-09-30T03:23:37;6.70;;;3.90;;
34505;SDS011;20748;42.632;23.198;2023-09-30T03:26:13;9.73;;;4.32;;
34505;SDS011;20748;42.632;23.198;2023-09-30T03:28:48;8.50;;;5.00;;
34505;SDS011;20748;42.632;23.198;2023-09-30T03:31:22;7.22;;;4.55;;
34505;SDS011;20748;42.632;23.198;2023-09-30T03:33:57;8.40;;;3.92;;
34505;SDS011;20748;42.632;23.198;2023-09-30T03:36:33;5.82;;;3.88;;
34505;SDS011;20748;42.632;23.198;2023-09-30T03:39:08;8.95;;;4.80;;
34505;SDS011;20748;42.632;23.198;2023-09-30T03:41:48;7.85;;;5.22;;
34505;SDS011;20748;42.632;23.198;2023-09-30T03:44:21;9.32;;;4.75;;
34505;SDS011;20748;42.632;23.198;2023-09-30T03:46:56;7.45;;;4.35;;
34505;SDS011;20748;42.632;23.198;2023-09-30T03:49:31;5.63;;;3.95;;
34505;SDS011;20748;42.632;23.198;2023-09-30T03:52:05;11.00;;;5.25;;
34505;SDS011;20748;42.632;23.198;2023-09-30T03:54:40;7.20;;;3.80;;
34505;SDS011;20748;42.632;23.198;2023-09-30T03:57:16;8.48;;;4.00;;
34505;SDS011;20748;42.632;23.198;2023-09-30T03:59:50;9.27;;;4.15;;
34505;SDS011;20748;42.632;23.198;2023-09-30T04:02:24;8.20;;;3.92;;
34505;SDS011;20748;42.632;23.198;2023-09-30T04:04:58;6.70;;;4.00;;
34505;SDS011;20748;42.632;23.198;2023-09-30T04:07:36;11.02;;;4.20;;
34505;SDS011;20748;42.632;23.198;2023-09-30T04:10:10;6.68;;;4.07;;
34505;SDS011;20748;42.632;23.198;2023-09-30T04:12:45;7.10;;;3.95;;
34505;SDS011;20748;42.632;23.198;2023-09-30T04:15:18;6.68;;;3.90;;
34505;SDS011;20748;42.632;23.198;2023-09-30T04:17:52;7.35;;;4.35;;
34505;SDS011;20748;42.632;23.198;2023-09-30T04:20:26;8.68;;;3.67;;
34505;SDS011;20748;42.632;23.198;2023-09-30T04:23:01;10.07;;;3.80;;
34505;SDS011;20748;42.632;23.198;2023-09-30T04:25:35;13.10;;;5.57;;
34505;SDS011;20748;42.632;23.198;2023-09-30T04:28:10;14.48;;;4.70;;
34505;SDS011;20748;42.632;23.198;2023-09-30T04:30:44;11.68;;;5.30;;
34505;SDS011;20748;42.632;23.198;2023-09-30T04:33:20;9.18;;;4.43;;
34505;SDS011;20748;42.632;23.198;2023-09-30T04:35:56;7.65;;;4.57;;
34505;SDS011;20748;42.632;23.198;2023-09-30T04:38:30;11.93;;;5.85;;
34505;SDS011;20748;42.632;23.198;2023-09-30T04:41:04;10.75;;;4.50;;
34505;SDS011;20748;42.632;23.198;2023-09-30T04:43:40;8.18;;;4.22;;
34505;SDS011;20748;42.632;23.198;2023-09-30T04:46:16;10.05;;;4.35;;
34505;SDS011;20748;42.632;23.198;2023-09-30T04:48:52;8.30;;;4.93;;
34505;SDS011;20748;42.632;23.198;2023-09-30T04:51:26;7.72;;;4.85;;
34505;SDS011;20748;42.632;23.198;2023-09-30T04:54:00;7.78;;;4.47;;
34505;SDS011;20748;42.632;23.198;2023-09-30T04:56:35;11.05;;;4.28;;
34505;SDS011;20748;42.632;23.198;2023-09-30T04:59:12;8.68;;;4.80;;
34505;SDS011;20748;42.632;23.198;2023-09-30T05:01:46;10.07;;;4.72;;
34505;SDS011;20748;42.632;23.198;2023-09-30T05:04:20;11.93;;;5.00;;
34505;SDS011;20748;42.632;23.198;2023-09-30T05:06:56;8.40;;;4.60;;
34505;SDS011;20748;42.632;23.198;2023-09-30T05:09:29;8.93;;;4.32;;
34505;SDS011;20748;42.632;23.198;2023-09-30T05:12:04;7.30;;;4.85;;
34505;SDS011;20748;42.632;23.198;2023-09-30T05:14:39;8.70;;;4.75;;
34505;SDS011;20748;42.632;23.198;2023-09-30T05:17:13;9.40;;;5.15;;
34505;SDS011;20748;42.632;23.198;2023-09-30T05:19:47;8.40;;;4.28;;
34505;SDS011;20748;42.632;23.198;2023-09-30T05:22:20;14.85;;;5.53;;
34505;SDS011;20748;42.632;23.198;2023-09-30T05:24:56;9.48;;;5.57;;
34505;SDS011;20748;42.632;23.198;2023-09-30T05:27:29;8.80;;;4.95;;
34505;SDS011;20748;42.632;23.198;2023-09-30T05:30:07;8.27;;;4.90;;
34505;SDS011;20748;42.632;23.198;2023-09-30T05:32:43;7.85;;;4.03;;
34505;SDS011;20748;42.632;23.198;2023-09-30T05:35:19;8.68;;;4.40;;
34505;SDS011;20748;42.632;23.198;2023-09-30T05:37:56;14.80;;;5.65;;
34505;SDS011;20748;42.632;23.198;2023-09-30T05:40:29;10.45;;;5.10;;
34505;SDS011;20748;42.632;23.198;2023-09-30T05:43:03;12.80;;;4.95;;
34505;SDS011;20748;42.632;23.198;2023-09-30T05:45:39;7.90;;;4.18;;
34505;SDS011;20748;42.632;23.198;2023-09-30T05:48:21;9.63;;;4.05;;
34505;SDS011;20748;42.632;23.198;2023-09-30T05:50:55;7.97;;;3.92;;
34505;SDS011;20748;42.632;23.198;2023-09-30T05:53:29;9.55;;;4.65;;
34505;SDS011;20748;42.632;23.198;2023-09-30T05:56:04;7.95;;;4.80;;
34505;SDS011;20748;42.632;23.198;2023-09-30T05:58:39;8.32;;;4.47;;
34505;SDS011;20748;42.632;23.198;2023-09-30T06:01:14;10.63;;;4.65;;
34505;SDS011;20748;42.632;23.198;2023-09-30T06:03:51;6.70;;;3.67;;
34505;SDS011;20748;42.632;23.198;2023-09-30T06:06:25;9.60;;;4.05;;
34505;SDS011;20748;42.632;23.198;2023-09-30T06:09:00;6.60;;;3.38;;
34505;SDS011;20748;42.632;23.198;2023-09-30T06:11:34;7.40;;;2.85;;
34505;SDS011;20748;42.632;23.198;2023-09-30T06:14:08;5.07;;;2.67;;
34505;SDS011;20748;42.632;23.198;2023-09-30T06:16:44;4.75;;;2.67;;
34505;SDS011;20748;42.632;23.198;2023-09-30T06:19:17;5.00;;;3.20;;
34505;SDS011;20748;42.632;23.198;2023-09-30T06:21:53;4.78;;;2.67;;
34505;SDS011;20748;42.632;23.198;2023-09-30T06:24:29;7.03;;;3.22;;
34505;SDS011;20748;42.632;23.198;2023-09-30T06:27:02;4.60;;;2.85;;
34505;SDS011;20748;42.632;23.198;2023-09-30T06:29:36;6.95;;;2.80;;
34505;SDS011;20748;42.632;23.198;2023-09-30T06:32:14;6.10;;;3.67;;
34505;SDS011;20748;42.632;23.198;2023-09-30T06:34:48;8.88;;;3.65;;
34505;SDS011;20748;42.632;23.198;2023-09-30T06:37:22;6.18;;;4.25;;
34505;SDS011;20748;42.632;23.198;2023-09-30T06:39:56;5.78;;;3.40;;
34505;SDS011;20748;42.632;23.198;2023-09-30T06:42:29;8.43;;;3.35;;
34505;SDS011;20748;42.632;23.198;2023-09-30T06:45:04;8.75;;;3.00;;
34505;SDS011;20748;42.632;23.198;2023-09-30T06:47:40;5.40;;;2.95;;
34505;SDS011;20748;42.632;23.198;2023-09-30T06:50:14;13.57;;;3.08;;
34505;SDS011;20748;42.632;23.198;2023-09-30T06:52:49;5.38;;;3.20;;
34505;SDS011;20748;42.632;23.198;2023-09-30T06:55:23;6.78;;;2.70;;
34505;SDS011;20748;42.632;23.198;2023-09-30T06:57:59;7.95;;;3.15;;
34505;SDS011;20748;42.632;23.198;2023-09-30T07:00:34;6.03;;;3.05;;
34505;SDS011;20748;42.632;23.198;2023-09-30T07:03:10;7.28;;;2.63;;
34505;SDS011;20748;42.632;23.198;2023-09-30T07:05:44;5.90;;;2.67;;
34505;SDS011;20748;42.632;23.198;2023-09-30T07:08:17;5.82;;;2.60;;
34505;SDS011;20748;42.632;23.198;2023-09-30T07:10:53;6.63;;;3.05;;
34505;SDS011;20748;42.632;23.198;2023-09-30T07:13:27;10.32;;;3.13;;
34505;SDS011;20748;42.632;23.198;2023-09-30T07:16:00;9.88;;;3.40;;
34505;SDS011;20748;42.632;23.198;2023-09-30T07:18:36;5.55;;;2.60;;
34505;SDS011;20748;42.632;23.198;2023-09-30T07:21:10;6.25;;;2.92;;
34505;SDS011;20748;42.632;23.198;2023-09-30T07:23:45;7.53;;;2.83;;
34505;SDS011;20748;42.632;23.198;2023-09-30T07:26:23;5.72;;;2.65;;
34505;SDS011;20748;42.632;23.198;2023-09-30T07:28:57;4.20;;;2.28;;
34505;SDS011;20748;42.632;23.198;2023-09-30T07:31:33;10.48;;;2.97;;
34505;SDS011;20748;42.632;23.198;2023-09-30T07:34:09;4.28;;;2.80;;
34505;SDS011;20748;42.632;23.198;2023-09-30T07:36:43;5.05;;;2.83;;
34505;SDS011;20748;42.632;23.198;2023-09-30T07:39:17;6.00;;;3.22;;
34505;SDS011;20748;42.632;23.198;2023-09-30T07:41:51;4.70;;;2.53;;
34505;SDS011;20748;42.632;23.198;2023-09-30T07:44:24;11.20;;;3.83;;
34505;SDS011;20748;42.632;23.198;2023-09-30T07:46:58;4.93;;;2.92;;
34505;SDS011;20748;42.632;23.198;2023-09-30T07:49:34;7.63;;;3.25;;
34505;SDS011;20748;42.632;23.198;2023-09-30T07:52:08;7.03;;;3.47;;
34505;SDS011;20748;42.632;23.198;2023-09-30T07:54:42;7.55;;;3.67;;
34505;SDS011;20748;42.632;23.198;2023-09-30T07:57:16;10.88;;;3.90;;
34505;SDS011;20748;42.632;23.198;2023-09-30T07:59:50;5.40;;;2.88;;
34505;SDS011;20748;42.632;23.198;2023-09-30T08:02:24;6.60;;;3.72;;
34505;SDS011;20748;42.632;23.198;2023-09-30T08:05:07;5.93;;;3.25;;
34505;SDS011;20748;42.632;23.198;2023-09-30T08:07:41;5.90;;;2.85;;
34505;SDS011;20748;42.632;23.198;2023-09-30T08:10:15;8.57;;;3.55;;
34505;SDS011;20748;42.632;23.198;2023-09-30T08:12:49;5.10;;;3.05;;
34505;SDS011;20748;42.632;23.198;2023-09-30T08:15:23;9.07;;;3.10;;
34505;SDS011;20748;42.632;23.198;2023-09-30T08:17:57;6.95;;;3.90;;
34505;SDS011;20748;42.632;23.198;2023-09-30T08:20:33;6.82;;;4.53;;
34505;SDS011;20748;42.632;23.198;2023-09-30T08:23:06;7.13;;;4.15;;
34505;SDS011;20748;42.632;23.198;2023-09-30T08:25:40;8.10;;;4.78;;
34505;SDS011;20748;42.632;23.198;2023-09-30T08:28:14;7.07;;;4.05;;
34505;SDS011;20748;42.632;23.198;2023-09-30T08:30:48;7.95;;;4.00;;
34505;SDS011;20748;42.632;23.198;2023-09-30T08:33:23;10.00;;;4.70;;
34505;SDS011;20748;42.632;23.198;2023-09-30T08:36:02;11.35;;;5.53;;
34505;SDS011;20748;42.632;23.198;2023-09-30T08:38:40;8.35;;;5.03;;
34505;SDS011;20748;42.632;23.198;2023-09-30T08:41:16;12.75;;;5.93;;
34505;SDS011;20748;42.632;23.198;2023-09-30T08:43:59;11.27;;;5.13;;
34505;SDS011;20748;42.632;23.198;2023-09-30T08:46:34;13.10;;;5.93;;
34505;SDS011;20748;42.632;23.198;2023-09-30T08:49:08;12.73;;;4.97;;
34505;SDS011;20748;42.632;23.198;2023-09-30T08:51:46;8.82;;;4.97;;
34505;SDS011;20748;42.632;23.198;2023-09-30T08:54:22;9.60;;;5.07;;
34505;SDS011;20748;42.632;23.198;2023-09-30T08:56:56;9.07;;;5.38;;
34505;SDS011;20748;42.632;23.198;2023-09-30T08:59:31;9.00;;;5.13;;
34505;SDS011;20748;42.632;23.198;2023-09-30T09:02:08;9.45;;;5.97;;
34505;SDS011;20748;42.632;23.198;2023-09-30T09:04:43;7.22;;;5.03;;
34505;SDS011;20748;42.632;23.198;2023-09-30T09:07:19;13.82;;;6.60;;
34505;SDS011;20748;42.632;23.198;2023-09-30T09:10:03;6.22;;;5.00;;
34505;SDS011;20748;42.632;23.198;2023-09-30T09:12:38;8.05;;;5.60;;
34505;SDS011;20748;42.632;23.198;2023-09-30T09:15:23;9.02;;;5.90;;
34505;SDS011;20748;42.632;23.198;2023-09-30T09:17:58;9.10;;;5.65;;
34505;SDS011;20748;42.632;23.198;2023-09-30T09:20:32;8.95;;;5.70;;
34505;SDS011;20748;42.632;23.198;2023-09-30T09:23:08;8.65;;;5.35;;
34505;SDS011;20748;42.632;23.198;2023-09-30T09:25:41;14.40;;;6.45;;
34505;SDS011;20748;42.632;23.198;2023-09-30T09:28:16;11.40;;;5.85;;
34505;SDS011;20748;42.632;23.198;2023-09-30T09:30:49;8.38;;;5.32;;
34505;SDS011;20748;42.632;23.198;2023-09-30T09:33:23;10.50;;;6.53;;
34505;SDS011;20748;42.632;23.198;2023-09-30T09:36:09;13.38;;;6.13;;
34505;SDS011;20748;42.632;23.198;2023-09-30T09:38:45;12.48;;;5.38;;
34505;SDS011;20748;42.632;23.198;2023-09-30T09:41:20;8.75;;;4.97;;
34505;SDS011;20748;42.632;23.198;2023-09-30T09:43:54;7.70;;;4.85;;
34505;SDS011;20748;42.632;23.198;2023-09-30T09:46:32;9.13;;;4.95;;
34505;SDS011;20748;42.632;23.198;2023-09-30T09:49:06;11.75;;;5.07;;
34505;SDS011;20748;42.632;23.198;2023-09-30T09:51:40;12.77;;;4.85;;
34505;SDS011;20748;42.632;23.198;2023-09-30T09:54:17;7.57;;;4.30;;
34505;SDS011;20748;42.632;23.198;2023-09-30T09:56:53;12.60;;;5.05;;
34505;SDS011;20748;42.632;23.198;2023-09-30T09:59:29;7.30;;;4.32;;
34505;SDS011;20748;42.632;23.198;2023-09-30T10:02:04;6.97;;;4.60;;
34505;SDS011;20748;42.632;23.198;2023-09-30T10:04:44;8.40;;;4.97;;
34505;SDS011;20748;42.632;23.198;2023-09-30T10:07:19;6.28;;;4.10;;
34505;SDS011;20748;42.632;23.198;2023-09-30T10:09:56;8.80;;;3.85;;
34505;SDS011;20748;42.632;23.198;2023-09-30T10:12:37;6.90;;;3.80;;
34505;SDS011;20748;42.632;23.198;2023-09-30T10:18:13;7.95;;;3.75;;
34505;SDS011;20748;42.632;23.198;2023-09-30T10:20:48;11.48;;;3.90;;
34505;SDS011;20748;42.632;23.198;2023-09-30T10:23:22;7.80;;;4.25;;
34505;SDS011;20748;42.632;23.198;2023-09-30T10:28:54;6.22;;;3.13;;
34505;SDS011;20748;42.632;23.198;2023-09-30T10:31:28;4.07;;;2.88;;
34505;SDS011;20748;42.632;23.198;2023-09-30T10:34:21;6.22;;;3.45;;
34505;SDS011;20748;42.632;23.198;2023-09-30T10:36:56;5.18;;;3.33;;
34505;SDS011;20748;42.632;23.198;2023-09-30T10:42:46;6.30;;;3.08;;
34505;SDS011;20748;42.632;23.198;2023-09-30T10:45:41;3.72;;;2.47;;
34505;SDS011;20748;42.632;23.198;2023-09-30T10:48:32;5.10;;;3.17;;
34505;SDS011;20748;42.632;23.198;2023-09-30T10:51:11;6.65;;;3.72;;
34505;SDS011;20748;42.632;23.198;2023-09-30T10:53:47;5.72;;;2.72;;
34505;SDS011;20748;42.632;23.198;2023-09-30T10:56:26;4.80;;;2.90;;
34505;SDS011;20748;42.632;23.198;2023-09-30T10:59:07;5.55;;;2.55;;
34505;SDS011;20748;42.632;23.198;2023-09-30T11:01:41;6.00;;;2.80;;
34505;SDS011;20748;42.632;23.198;2023-09-30T11:04:16;3.55;;;2.15;;
34505;SDS011;20748;42.632;23.198;2023-09-30T11:06:51;8.65;;;2.67;;
34505;SDS011;20748;42.632;23.198;2023-09-30T11:09:25;7.13;;;2.55;;
34505;SDS011;20748;42.632;23.198;2023-09-30T11:11:59;3.65;;;2.40;;
34505;SDS011;20748;42.632;23.198;2023-09-30T11:14:34;7.05;;;2.30;;
34505;SDS011;20748;42.632;23.198;2023-09-30T11:17:09;5.10;;;3.03;;
34505;SDS011;20748;42.632;23.198;2023-09-30T11:19:45;8.00;;;2.50;;
34505;SDS011;20748;42.632;23.198;2023-09-30T11:22:21;10.60;;;2.58;;
34505;SDS011;20748;42.632;23.198;2023-09-30T11:24:55;6.28;;;2.65;;
34505;SDS011;20748;42.632;23.198;2023-09-30T11:27:29;5.05;;;2.80;;
34505;SDS011;20748;42.632;23.198;2023-09-30T11:30:05;7.47;;;3.05;;
34505;SDS011;20748;42.632;23.198;2023-09-30T11:32:40;6.85;;;2.95;;
34505;SDS011;20748;42.632;23.198;2023-09-30T11:35:21;4.82;;;2.78;;
34505;SDS011;20748;42.632;23.198;2023-09-30T11:37:56;6.25;;;2.25;;
34505;SDS011;20748;42.632;23.198;2023-09-30T11:40:29;4.97;;;2.85;;
34505;SDS011;20748;42.632;23.198;2023-09-30T11:43:06;7.00;;;3.28;;
34505;SDS011;20748;42.632;23.198;2023-09-30T11:45:41;6.20;;;3.03;;
34505;SDS011;20748;42.632;23.198;2023-09-30T11:48:16;7.10;;;3.72;;
34505;SDS011;20748;42.632;23.198;2023-09-30T11:50:52;6.13;;;2.88;;
34505;SDS011;20748;42.632;23.198;2023-09-30T11:53:28;7.70;;;2.80;;
34505;SDS011;20748;42.632;23.198;2023-09-30T11:56:03;5.43;;;2.92;;
34505;SDS011;20748;42.632;23.198;2023-09-30T11:58:39;7.60;;;3.03;;
34505;SDS011;20748;42.632;23.198;2023-09-30T12:01:14;8.05;;;3.13;;
34505;SDS011;20748;42.632;23.198;2023-09-30T12:03:48;10.30;;;3.65;;
34505;SDS011;20748;42.632;23.198;2023-09-30T12:06:26;4.45;;;2.75;;
34505;SDS011;20748;42.632;23.198;2023-09-30T12:09:00;4.57;;;3.08;;
34505;SDS011;20748;42.632;23.198;2023-09-30T12:11:35;7.85;;;3.15;;
34505;SDS011;20748;42.632;23.198;2023-09-30T12:14:09;8.35;;;3.08;;
34505;SDS011;20748;42.632;23.198;2023-09-30T12:16:45;4.88;;;2.78;;
34505;SDS011;20748;42.632;23.198;2023-09-30T12:19:20;7.53;;;3.03;;
34505;SDS011;20748;42.632;23.198;2023-09-30T12:21:53;6.75;;;2.85;;
34505;SDS011;20748;42.632;23.198;2023-09-30T12:24:28;6.88;;;3.22;;
34505;SDS011;20748;42.632;23.198;2023-09-30T12:27:01;4.25;;;3.00;;
34505;SDS011;20748;42.632;23.198;2023-09-30T12:29:36;6.00;;;3.50;;
34505;SDS011;20748;42.632;23.198;2023-09-30T12:32:13;6.60;;;3.00;;
34505;SDS011;20748;42.632;23.198;2023-09-30T12:34:47;6.18;;;3.05;;
34505;SDS011;20748;42.632;23.198;2023-09-30T12:37:21;4.43;;;3.10;;
34505;SDS011;20748;42.632;23.198;2023-09-30T12:39:55;5.68;;;3.30;;
34505;SDS011;20748;42.632;23.198;2023-09-30T12:42:28;8.13;;;3.80;;
34505;SDS011;20748;42.632;23.198;2023-09-30T12:45:03;6.60;;;3.17;;
34505;SDS011;20748;42.632;23.198;2023-09-30T12:47:39;4.03;;;2.63;;
34505;SDS011;20748;42.632;23.198;2023-09-30T12:50:13;5.00;;;3.65;;
34505;SDS011;20748;42.632;23.198;2023-09-30T12:52:46;5.22;;;2.72;;
34505;SDS011;20748;42.632;23.198;2023-09-30T12:55:21;6.75;;;2.83;;
34505;SDS011;20748;42.632;23.198;2023-09-30T12:57:55;3.75;;;2.50;;
34505;SDS011;20748;42.632;23.198;2023-09-30T13:00:30;4.93;;;2.70;;
34505;SDS011;20748;42.632;23.198;2023-09-30T13:03:06;4.68;;;2.58;;
34505;SDS011;20748;42.632;23.198;2023-09-30T13:05:41;7.53;;;2.92;;
34505;SDS011;20748;42.632;23.198;2023-09-30T13:08:15;6.63;;;2.63;;
34505;SDS011;20748;42.632;23.198;2023-09-30T13:10:49;6.53;;;2.58;;
34505;SDS011;20748;42.632;23.198;2023-09-30T13:13:24;4.43;;;2.67;;
34505;SDS011;20748;42.632;23.198;2023-09-30T13:15:58;4.55;;;3.15;;
34505;SDS011;20748;42.632;23.198;2023-09-30T13:18:34;7.82;;;3.28;;
34505;SDS011;20748;42.632;23.198;2023-09-30T13:21:08;5.70;;;3.20;;
34505;SDS011;20748;42.632;23.198;2023-09-30T13:23:44;4.43;;;2.60;;
34505;SDS011;20748;42.632;23.198;2023-09-30T13:26:18;4.63;;;2.78;;
34505;SDS011;20748;42.632;23.198;2023-09-30T13:28:52;5.72;;;2.92;;
34505;SDS011;20748;42.632;23.198;2023-09-30T13:31:26;8.02;;;3.22;;
34505;SDS011;20748;42.632;23.198;2023-09-30T13:34:02;8.82;;;3.55;;
34505;SDS011;20748;42.632;23.198;2023-09-30T13:36:36;4.88;;;3.05;;
34505;SDS011;20748;42.632;23.198;2023-09-30T13:39:10;6.13;;;3.40;;
34505;SDS011;20748;42.632;23.198;2023-09-30T13:41:45;4.35;;;2.78;;
34505;SDS011;20748;42.632;23.198;2023-09-30T13:44:20;3.92;;;3.20;;
34505;SDS011;20748;42.632;23.198;2023-09-30T13:46:54;6.25;;;3.58;;
34505;SDS011;20748;42.632;23.198;2023-09-30T13:49:29;5.82;;;3.00;;
34505;SDS011;20748;42.632;23.198;2023-09-30T13:52:03;7.15;;;3.15;;
34505;SDS011;20748;42.632;23.198;2023-09-30T13:54:37;5.53;;;3.42;;
34505;SDS011;20748;42.632;23.198;2023-09-30T13:57:12;4.05;;;3.00;;
34505;SDS011;20748;42.632;23.198;2023-09-30T13:59:46;7.10;;;3.42;;
34505;SDS011;20748;42.632;23.198;2023-09-30T14:02:20;10.23;;;3.75;;
34505;SDS011;20748;42.632;23.198;2023-09-30T14:04:56;4.18;;;3.22;;
34505;SDS011;20748;42.632;23.198;2023-09-30T14:07:30;5.60;;;3.78;;
34505;SDS011;20748;42.632;23.198;2023-09-30T14:10:05;3.92;;;2.83;;
34505;SDS011;20748;42.632;23.198;2023-09-30T14:12:42;6.75;;;3.58;;
34505;SDS011;20748;42.632;23.198;2023-09-30T14:15:16;6.95;;;3.03;;
34505;SDS011;20748;42.632;23.198;2023-09-30T14:17:50;5.68;;;3.75;;
34505;SDS011;20748;42.632;23.198;2023-09-30T14:20:25;4.68;;;3.13;;
34505;SDS011;20748;42.632;23.198;2023-09-30T14:22:59;4.40;;;2.90;;
34505;SDS011;20748;42.632;23.198;2023-09-30T14:25:34;8.93;;;4.03;;
34505;SDS011;20748;42.632;23.198;2023-09-30T14:28:08;7.18;;;3.05;;
34505;SDS011;20748;42.632;23.198;2023-09-30T14:30:42;5.20;;;3.85;;
34505;SDS011;20748;42.632;23.198;2023-09-30T14:33:16;4.68;;;3.17;;
34505;SDS011;20748;42.632;23.198;2023-09-30T14:35:51;4.13;;;3.05;;
34505;SDS011;20748;42.632;23.198;2023-09-30T14:38:27;4.95;;;3.45;;
34505;SDS011;20748;42.632;23.198;2023-09-30T14:41:00;6.30;;;2.80;;
34505;SDS011;20748;42.632;23.198;2023-09-30T14:43:34;6.75;;;3.45;;
34505;SDS011;20748;42.632;23.198;2023-09-30T14:46:08;11.07;;;3.88;;
34505;SDS011;20748;42.632;23.198;2023-09-30T14:48:42;6.07;;;3.45;;
34505;SDS011;20748;42.632;23.198;2023-09-30T14:51:17;6.30;;;3.20;;
34505;SDS011;20748;42.632;23.198;2023-09-30T14:53:53;7.05;;;3.75;;
34505;SDS011;20748;42.632;23.198;2023-09-30T14:56:27;9.00;;;3.75;;
34505;SDS011;20748;42.632;23.198;2023-09-30T14:59:01;5.18;;;2.95;;
34505;SDS011;20748;42.632;23.198;2023-09-30T15:01:36;5.88;;;3.13;;
34505;SDS011;20748;42.632;23.198;2023-09-30T15:04:10;7.15;;;3.60;;
34505;SDS011;20748;42.632;23.198;2023-09-30T15:06:46;7.25;;;3.45;;
34505;SDS011;20748;42.632;23.198;2023-09-30T15:09:20;5.45;;;3.60;;
34505;SDS011;20748;42.632;23.198;2023-09-30T15:11:54;5.82;;;3.50;;
34505;SDS011;20748;42.632;23.198;2023-09-30T15:14:28;6.22;;;3.67;;
34505;SDS011;20748;42.632;23.198;2023-09-30T15:17:01;5.80;;;3.53;;
34505;SDS011;20748;42.632;23.198;2023-09-30T15:19:36;7.72;;;3.60;;
34505;SDS011;20748;42.632;23.198;2023-09-30T15:22:11;8.52;;;3.75;;
34505;SDS011;20748;42.632;23.198;2023-09-30T15:24:46;7.70;;;3.67;;
34505;SDS011;20748;42.632;23.198;2023-09-30T15:27:21;8.75;;;4.00;;
34505;SDS011;20748;42.632;23.198;2023-09-30T15:29:59;6.38;;;3.28;;